Time;durP1;ratioP1;P1;durP2;ratioP2;P2;SDS_P1;SDS_P2;PMS_P1;PMS_P2;Temp;Humidity;BMP_temperature;BMP_pressure;BME280_temperature;BME280_humidity;BME280_pressure;Samples;Min_cycle;Max_cycle;Signal;HPM_P1;HPM_P2
2022/03/06 00:00:01;;;;;;;10.40;4.73;;;6.00;68.80;;;;;;5041411;28;20257;-77
2022/03/06 00:02:29;;;;;;;8.63;5.20;;;6.00;69.60;;;;;;5041364;28;21748;-77
2022/03/06 00:04:57;;;;;;;11.57;4.63;;;6.00;68.80;;;;;;5042187;28;20205;-77
2022/03/06 00:07:27;;;;;;;9.40;4.80;;;6.00;68.80;;;;;;5042980;28;20195;-77
2022/03/06 00:09:55;;;;;;;8.73;4.80;;;6.00;68.90;;;;;;5043521;28;20199;-76
2022/03/06 00:12:24;;;;;;;7.20;4.93;;;5.90;69.50;;;;;;5042558;28;20286;-77
2022/03/06 00:14:52;;;;;;;9.83;5.13;;;5.90;68.70;;;;;;5042401;28;20199;-76
2022/03/06 00:17:20;;;;;;;7.53;4.53;;;5.90;68.60;;;;;;5042562;28;20251;-76
2022/03/06 00:19:49;;;;;;;10.03;5.20;;;5.90;68.90;;;;;;5042183;28;20205;-76
2022/03/06 00:22:17;;;;;;;8.37;4.80;;;5.90;69.00;;;;;;5043152;28;20218;-77
2022/03/06 00:24:47;;;;;;;7.90;4.47;;;5.80;68.70;;;;;;5044859;28;20212;-77
2022/03/06 00:27:15;;;;;;;9.00;4.60;;;5.80;68.70;;;;;;5042535;28;20195;-77
2022/03/06 00:29:43;;;;;;;11.13;5.10;;;5.70;68.70;;;;;;5042170;28;20201;-76
2022/03/06 00:32:12;;;;;;;9.73;5.03;;;5.80;68.80;;;;;;5041606;28;20195;-78
2022/03/06 00:34:43;;;;;;;8.67;4.57;;;5.80;68.80;;;;;;5040548;28;20736;-79
2022/03/06 00:37:11;;;;;;;9.20;4.90;;;5.80;69.00;;;;;;5043247;28;20195;-78
2022/03/06 00:39:39;;;;;;;12.50;5.20;;;5.70;68.80;;;;;;5042394;28;20608;-77
2022/03/06 00:42:09;;;;;;;9.53;4.80;;;5.70;68.90;;;;;;5043318;28;20260;-77
2022/03/06 00:44:38;;;;;;;9.17;4.30;;;5.70;69.10;;;;;;5042536;28;20205;-77
2022/03/06 00:47:06;;;;;;;9.07;4.53;;;5.60;69.10;;;;;;5043062;28;20210;-76
2022/03/06 00:49:35;;;;;;;12.13;5.17;;;5.70;69.00;;;;;;5041205;28;20202;-76
2022/03/06 00:52:04;;;;;;;10.10;5.13;;;5.70;69.00;;;;;;5043220;28;20198;-77
2022/03/06 00:54:33;;;;;;;10.27;5.70;;;5.60;69.00;;;;;;5042776;28;21219;-78
2022/03/06 00:57:01;;;;;;;10.20;5.67;;;5.70;69.00;;;;;;5042818;28;20190;-76
2022/03/06 00:59:34;;;;;;;10.20;5.30;;;5.60;69.30;;;;;;5041378;28;20210;-77
2022/03/06 01:02:05;;;;;;;9.60;5.13;;;5.70;69.30;;;;;;5041550;28;20194;-77
2022/03/06 01:04:35;;;;;;;10.23;4.97;;;5.60;69.30;;;;;;5040734;28;20183;-77
2022/03/06 01:07:03;;;;;;;8.97;4.80;;;5.60;69.30;;;;;;5040624;28;20194;-77
2022/03/06 01:09:32;;;;;;;8.73;4.80;;;5.50;69.40;;;;;;5043347;28;20213;-76
2022/03/06 01:12:00;;;;;;;8.97;4.97;;;5.60;69.40;;;;;;5041592;28;20788;-76
2022/03/06 01:14:30;;;;;;;9.53;5.33;;;5.50;69.40;;;;;;5042425;28;20195;-76
2022/03/06 01:16:58;;;;;;;9.40;5.00;;;5.50;69.60;;;;;;5043686;28;20202;-76
2022/03/06 01:19:26;;;;;;;9.83;5.43;;;5.50;69.70;;;;;;5043142;28;20198;-77
2022/03/06 01:21:55;;;;;;;11.03;5.00;;;5.50;69.70;;;;;;5041856;28;20198;-76
2022/03/06 01:24:26;;;;;;;8.73;5.13;;;5.50;69.70;;;;;;5042033;28;20215;-76
2022/03/06 01:26:55;;;;;;;9.40;5.57;;;5.50;70.00;;;;;;5040518;28;20796;-79
2022/03/06 01:29:30;;;;;;;9.90;5.03;;;5.40;69.90;;;;;;5039849;28;20210;-77
2022/03/06 01:32:00;;;;;;;12.10;6.23;;;5.40;70.00;;;;;;5040263;28;20206;-77
2022/03/06 01:34:28;;;;;;;10.87;5.53;;;5.40;70.30;;;;;;5044997;28;20222;-76
2022/03/06 01:36:57;;;;;;;9.27;5.10;;;5.40;70.40;;;;;;5045772;28;20198;-77
2022/03/06 01:39:25;;;;;;;9.67;5.53;;;5.40;70.30;;;;;;5045065;28;20195;-76
2022/03/06 01:41:53;;;;;;;10.00;5.60;;;5.40;70.30;;;;;;5045115;28;20730;-76
2022/03/06 01:44:22;;;;;;;12.73;5.17;;;5.40;70.50;;;;;;5045383;28;20278;-76
2022/03/06 01:46:51;;;;;;;10.90;5.50;;;5.40;70.50;;;;;;5045316;28;20226;-75
2022/03/06 01:49:20;;;;;;;10.40;5.43;;;5.40;70.60;;;;;;5045319;28;20233;-75
2022/03/06 01:51:49;;;;;;;10.50;5.70;;;5.30;70.70;;;;;;5044578;28;20204;-76
2022/03/06 01:54:17;;;;;;;10.83;5.57;;;5.40;70.50;;;;;;5044461;28;20195;-76
2022/03/06 01:56:46;;;;;;;9.80;5.43;;;5.40;70.40;;;;;;5045297;28;20220;-76
2022/03/06 01:59:15;;;;;;;11.03;5.63;;;5.40;70.70;;;;;;5045876;28;20190;-75
2022/03/06 02:01:43;;;;;;;9.87;5.43;;;5.30;70.70;;;;;;5044156;28;20212;-75
2022/03/06 02:04:12;;;;;;;8.63;5.03;;;5.40;70.70;;;;;;5046282;28;20234;-76
2022/03/06 02:06:42;;;;;;;11.13;5.80;;;5.40;70.50;;;;;;5045290;28;20291;-77
2022/03/06 02:09:10;;;;;;;11.03;5.93;;;5.40;70.70;;;;;;5044318;28;20214;-75
2022/03/06 02:11:41;;;;;;;8.53;4.97;;;5.40;70.80;;;;;;5045685;28;20202;-76
2022/03/06 02:14:09;;;;;;;12.93;5.23;;;5.30;71.40;;;;;;5045294;28;20660;-78
2022/03/06 02:16:37;;;;;;;11.03;5.47;;;5.30;71.20;;;;;;5045061;28;20248;-76
2022/03/06 02:19:05;;;;;;;10.68;6.00;;;5.30;71.60;;;;;;5043073;28;20460;-75
2022/03/06 02:21:35;;;;;;;10.27;5.90;;;5.30;72.30;;;;;;5044183;28;20202;-76
2022/03/06 02:24:04;;;;;;;8.53;5.33;;;5.30;72.20;;;;;;5044074;28;20767;-75
2022/03/06 02:26:32;;;;;;;15.80;6.03;;;5.20;72.30;;;;;;5045791;28;20195;-76
2022/03/06 02:29:00;;;;;;;9.00;5.03;;;5.20;72.20;;;;;;5044207;28;20230;-76
2022/03/06 02:31:28;;;;;;;12.27;6.47;;;5.20;72.20;;;;;;5045277;28;20928;-77
2022/03/06 02:33:57;;;;;;;12.00;5.67;;;5.20;72.20;;;;;;5044035;28;20233;-76
2022/03/06 02:36:25;;;;;;;11.07;6.00;;;5.20;72.30;;;;;;5044912;28;20240;-76
2022/03/06 02:38:55;;;;;;;11.13;5.57;;;5.20;72.50;;;;;;5046045;28;20200;-76
2022/03/06 02:41:25;;;;;;;11.00;6.20;;;5.20;72.60;;;;;;5044464;28;20211;-76
2022/03/06 02:43:53;;;;;;;10.53;5.60;;;5.20;73.20;;;;;;5043757;28;20204;-77
2022/03/06 02:46:23;;;;;;;11.23;6.33;;;5.20;73.80;;;;;;5046545;28;20262;-77
2022/03/06 02:48:55;;;;;;;9.40;5.73;;;5.10;73.30;;;;;;5045908;28;20218;-77
2022/03/06 02:51:29;;;;;;;12.37;5.57;;;5.20;73.80;;;;;;5041620;28;22469;-77
2022/03/06 02:53:59;;;;;;;11.03;6.10;;;5.10;73.80;;;;;;5044905;28;20278;-82
2022/03/06 02:56:28;;;;;;;12.63;6.10;;;5.10;73.80;;;;;;5045119;28;20254;-79
2022/03/06 02:58:56;;;;;;;13.13;6.63;;;5.10;74.20;;;;;;5042751;28;20198;-81
2022/03/06 03:01:25;;;;;;;11.57;6.13;;;5.10;74.30;;;;;;5044104;28;20572;-81
2022/03/06 03:03:54;;;;;;;12.70;6.23;;;5.00;74.20;;;;;;5043811;28;20224;-80
2022/03/06 03:06:22;;;;;;;11.97;6.30;;;5.00;74.30;;;;;;5044702;28;20207;-80
2022/03/06 03:08:50;;;;;;;11.80;6.00;;;5.00;74.20;;;;;;5044483;28;20213;-81
2022/03/06 03:11:20;;;;;;;13.20;6.70;;;5.00;74.30;;;;;;5045023;28;20200;-81
2022/03/06 03:13:48;;;;;;;11.77;6.40;;;5.00;74.00;;;;;;5042351;28;20271;-81
2022/03/06 03:16:17;;;;;;;10.83;5.77;;;5.00;74.20;;;;;;5043730;28;20255;-80
2022/03/06 03:18:45;;;;;;;12.13;5.87;;;5.00;74.40;;;;;;5042864;28;20194;-79
2022/03/06 03:21:14;;;;;;;11.43;5.90;;;5.00;74.40;;;;;;5043873;28;21603;-80
2022/03/06 03:23:42;;;;;;;13.20;5.93;;;5.00;74.40;;;;;;5040261;28;20221;-79
2022/03/06 03:26:10;;;;;;;11.10;6.20;;;5.00;74.60;;;;;;5042889;28;20975;-79
2022/03/06 03:28:40;;;;;;;12.57;5.70;;;5.00;74.70;;;;;;5044357;28;20266;-80
2022/03/06 03:31:08;;;;;;;9.73;6.10;;;4.90;75.00;;;;;;5043571;28;20208;-80
2022/03/06 03:33:36;;;;;;;12.23;6.40;;;4.80;75.70;;;;;;5043859;28;20347;-80
2022/03/06 03:36:06;;;;;;;12.47;6.30;;;4.90;74.80;;;;;;5044568;28;20204;-80
2022/03/06 03:38:34;;;;;;;14.93;7.50;;;4.90;74.70;;;;;;5043932;28;20208;-79
2022/03/06 03:41:06;;;;;;;13.97;6.67;;;4.90;75.10;;;;;;5043392;28;20671;-80
2022/03/06 03:43:35;;;;;;;13.63;6.83;;;4.90;75.20;;;;;;5043533;28;20197;-79
2022/03/06 03:46:06;;;;;;;12.50;6.27;;;4.80;75.10;;;;;;5041604;28;20910;-80
2022/03/06 03:48:34;;;;;;;11.93;6.10;;;4.90;75.10;;;;;;5042566;28;20201;-79
2022/03/06 03:51:02;;;;;;;12.17;6.17;;;4.90;75.20;;;;;;5041938;28;20924;-79
2022/03/06 03:53:31;;;;;;;10.90;6.03;;;4.80;75.30;;;;;;5039686;28;20194;-81
2022/03/06 03:55:59;;;;;;;14.07;7.00;;;4.80;75.70;;;;;;5044544;28;20204;-80
2022/03/06 03:58:28;;;;;;;9.80;6.30;;;4.70;76.10;;;;;;5043334;28;20201;-78
2022/03/06 04:00:56;;;;;;;10.47;6.10;;;4.80;75.80;;;;;;5042679;28;20197;-80
2022/03/06 04:03:27;;;;;;;12.17;6.07;;;4.70;76.00;;;;;;5041875;28;20958;-80
2022/03/06 04:05:56;;;;;;;10.43;6.37;;;4.70;75.70;;;;;;5042686;28;20208;-83
2022/03/06 04:08:24;;;;;;;11.57;6.17;;;4.70;75.80;;;;;;5043051;28;20197;-79
2022/03/06 04:10:52;;;;;;;12.60;6.70;;;4.70;75.70;;;;;;5043162;28;20200;-78
2022/03/06 04:13:20;;;;;;;11.33;5.87;;;4.70;76.10;;;;;;5042359;28;20224;-79
2022/03/06 04:15:49;;;;;;;15.57;7.07;;;4.70;76.00;;;;;;5042865;28;20208;-78
2022/03/06 04:18:17;;;;;;;12.77;7.50;;;4.70;76.10;;;;;;5042414;28;20199;-81
2022/03/06 04:20:47;;;;;;;12.10;5.60;;;4.70;76.30;;;;;;5042912;28;20253;-79
2022/03/06 04:23:15;;;;;;;11.10;5.83;;;4.60;76.10;;;;;;5041554;28;20303;-79
2022/03/06 04:25:43;;;;;;;13.05;6.80;;;4.60;76.30;;;;;;5041519;28;20432;-77
2022/03/06 04:28:12;;;;;;;12.07;6.10;;;4.60;76.20;;;;;;5040331;28;20205;-80
2022/03/06 04:30:40;;;;;;;14.60;6.33;;;4.60;76.50;;;;;;5042204;28;20204;-79
2022/03/06 04:33:09;;;;;;;11.33;5.87;;;4.60;76.40;;;;;;5043411;28;20210;-79
2022/03/06 04:35:37;;;;;;;12.63;6.40;;;4.60;76.60;;;;;;5043689;28;20201;-78
2022/03/06 04:38:07;;;;;;;14.40;6.67;;;4.60;76.70;;;;;;5043601;28;20212;-79
2022/03/06 04:40:35;;;;;;;12.17;6.47;;;4.60;76.80;;;;;;5043674;28;20878;-79
2022/03/06 04:43:03;;;;;;;11.73;6.53;;;4.60;76.80;;;;;;5042541;28;20205;-80
2022/03/06 04:45:32;;;;;;;12.70;6.37;;;4.60;76.70;;;;;;5043382;28;20772;-77
2022/03/06 04:48:00;;;;;;;12.27;6.40;;;4.60;76.60;;;;;;5043645;28;20265;-79
2022/03/06 04:50:28;;;;;;;9.67;5.70;;;4.60;76.70;;;;;;5043312;28;20201;-78
2022/03/06 04:52:56;;;;;;;12.37;6.13;;;4.50;76.50;;;;;;5042428;28;20942;-77
2022/03/06 04:55:26;;;;;;;14.03;6.20;;;4.60;76.60;;;;;;5042402;28;20206;-79
2022/03/06 04:57:55;;;;;;;12.00;6.10;;;4.60;76.70;;;;;;5042383;28;20603;-80
2022/03/06 05:00:23;;;;;;;10.13;5.80;;;4.50;76.60;;;;;;5042990;28;20198;-79
2022/03/06 05:02:51;;;;;;;15.68;7.10;;;4.50;76.50;;;;;;5041766;28;20439;-81
2022/03/06 05:05:20;;;;;;;14.10;6.20;;;4.50;76.90;;;;;;5041906;28;20706;-78
2022/03/06 05:07:48;;;;;;;13.83;6.30;;;4.50;77.10;;;;;;5047075;28;20268;-79
2022/03/06 05:10:17;;;;;;;13.67;7.00;;;4.50;76.90;;;;;;5047133;28;20203;-79
2022/03/06 05:12:46;;;;;;;15.07;6.40;;;4.40;76.90;;;;;;5046437;28;20209;-79
2022/03/06 05:15:15;;;;;;;15.25;7.95;;;4.40;76.90;;;;;;5046106;28;20432;-78
2022/03/06 05:17:44;;;;;;;11.50;6.43;;;4.50;77.20;;;;;;5046838;28;20228;-80
2022/03/06 05:20:14;;;;;;;11.97;6.17;;;4.50;77.40;;;;;;5047203;28;20605;-79
2022/03/06 05:22:43;;;;;;;11.33;6.03;;;4.40;77.20;;;;;;5046164;28;20203;-80
2022/03/06 05:25:12;;;;;;;12.80;6.43;;;4.40;77.10;;;;;;5046402;28;20218;-82
2022/03/06 05:27:41;;;;;;;10.57;6.23;;;4.40;77.10;;;;;;5045859;28;20243;-76
2022/03/06 05:30:13;;;;;;;13.33;5.90;;;4.50;77.20;;;;;;5045708;28;20212;-76
2022/03/06 05:32:42;;;;;;;11.70;6.40;;;4.50;77.20;;;;;;5045155;28;20206;-75
2022/03/06 05:35:11;;;;;;;9.97;5.23;;;4.50;77.40;;;;;;5046815;28;20213;-75
2022/03/06 05:37:39;;;;;;;11.93;6.17;;;4.50;77.60;;;;;;5045745;28;20714;-76
2022/03/06 05:40:09;;;;;;;12.87;6.57;;;4.50;77.70;;;;;;5045273;28;20768;-75
2022/03/06 05:42:37;;;;;;;10.00;5.87;;;4.50;77.70;;;;;;5045954;28;20251;-76
2022/03/06 05:45:06;;;;;;;11.80;6.30;;;4.50;78.00;;;;;;5045853;28;20229;-74
2022/03/06 05:47:36;;;;;;;12.23;5.63;;;4.50;77.70;;;;;;5046658;28;20254;-74
2022/03/06 05:50:07;;;;;;;12.80;6.40;;;4.60;77.60;;;;;;5045939;28;20209;-74
2022/03/06 05:52:35;;;;;;;12.93;6.37;;;4.60;77.60;;;;;;5045853;28;20205;-73
2022/03/06 05:55:04;;;;;;;10.83;6.00;;;4.60;77.50;;;;;;5045252;28;20186;-75
2022/03/06 05:57:33;;;;;;;14.27;6.70;;;4.70;77.40;;;;;;5044451;28;20197;-75
2022/03/06 06:00:01;;;;;;;9.33;5.40;;;4.70;77.20;;;;;;5045960;28;20205;-75
2022/03/06 06:02:30;;;;;;;12.27;6.27;;;4.70;77.00;;;;;;5043433;28;20240;-74
2022/03/06 06:04:59;;;;;;;9.97;5.40;;;4.80;77.00;;;;;;5045938;28;20194;-75
2022/03/06 06:07:28;;;;;;;12.73;6.00;;;4.80;77.40;;;;;;5046039;28;20202;-73
2022/03/06 06:09:56;;;;;;;12.70;6.00;;;4.90;77.10;;;;;;5046113;28;20279;-76
2022/03/06 06:12:24;;;;;;;10.07;5.70;;;4.90;76.90;;;;;;5045960;28;20201;-75
2022/03/06 06:15:10;;;;;;;12.90;5.63;;;4.90;76.70;;;;;;5047394;28;20228;-77
2022/03/06 06:17:39;;;;;;;10.90;5.47;;;4.90;76.60;;;;;;5047080;28;20686;-78
2022/03/06 06:20:11;;;;;;;10.27;5.90;;;4.90;76.40;;;;;;5046169;28;20210;-78
2022/03/06 06:22:40;;;;;;;12.03;6.13;;;5.00;76.40;;;;;;5045165;28;20201;-78
2022/03/06 06:25:09;;;;;;;12.80;5.57;;;5.10;76.30;;;;;;5045049;28;20206;-78
2022/03/06 06:27:37;;;;;;;12.80;6.13;;;5.00;76.00;;;;;;5044613;28;20213;-78
2022/03/06 06:30:07;;;;;;;12.27;6.60;;;5.10;76.00;;;;;;5044908;28;20887;-79
2022/03/06 06:32:35;;;;;;;10.67;5.73;;;5.10;75.90;;;;;;5045278;28;20206;-78
2022/03/06 06:35:04;;;;;;;9.47;5.27;;;5.20;75.80;;;;;;5046902;28;20942;-79
2022/03/06 06:37:34;;;;;;;9.83;5.43;;;5.20;75.60;;;;;;5046554;28;20201;-78
2022/03/06 06:40:02;;;;;;;11.80;6.33;;;5.20;75.40;;;;;;5044425;28;20673;-80
2022/03/06 06:42:30;;;;;;;11.40;6.43;;;5.30;75.50;;;;;;5044352;28;20440;-77
2022/03/06 06:44:58;;;;;;;12.23;6.60;;;5.30;75.50;;;;;;5045317;28;20198;-76
2022/03/06 06:47:27;;;;;;;10.33;5.17;;;5.40;75.50;;;;;;5045755;28;20218;-77
2022/03/06 06:49:55;;;;;;;10.87;5.83;;;5.40;75.10;;;;;;5044319;28;20567;-78
2022/03/06 06:52:23;;;;;;;12.90;5.63;;;5.40;75.00;;;;;;5045659;28;20199;-78
2022/03/06 06:54:53;;;;;;;12.60;6.63;;;5.40;75.10;;;;;;5044335;28;20478;-78
2022/03/06 06:57:21;;;;;;;10.37;5.33;;;5.50;75.40;;;;;;5045147;28;20194;-79
2022/03/06 06:59:50;;;;;;;10.43;5.67;;;5.60;75.50;;;;;;5044749;28;20893;-78
2022/03/06 07:02:18;;;;;;;11.23;6.27;;;5.70;75.30;;;;;;5044637;28;20234;-78
2022/03/06 07:04:46;;;;;;;10.37;5.93;;;5.80;75.20;;;;;;5045897;28;20200;-77
2022/03/06 07:07:15;;;;;;;10.17;5.70;;;5.90;75.00;;;;;;5044794;28;20219;-78
2022/03/06 07:09:43;;;;;;;10.23;5.70;;;6.00;73.90;;;;;;5044801;28;20604;-78
2022/03/06 07:12:12;;;;;;;9.60;5.60;;;6.10;73.80;;;;;;5044009;28;20200;-80
2022/03/06 07:14:41;;;;;;;10.70;5.60;;;6.30;73.60;;;;;;5045472;28;20198;-77
2022/03/06 07:17:09;;;;;;;8.07;4.80;;;6.40;73.10;;;;;;5042458;28;21493;-78
2022/03/06 07:19:37;;;;;;;10.10;5.07;;;6.50;72.90;;;;;;5043865;28;20677;-78
2022/03/06 07:22:06;;;;;;;9.00;4.77;;;6.60;72.50;;;;;;5043911;28;20195;-79
2022/03/06 07:24:34;;;;;;;8.00;5.03;;;6.70;72.20;;;;;;5045526;28;20204;-77
2022/03/06 07:27:02;;;;;;;9.30;5.37;;;6.80;71.70;;;;;;5043811;28;21001;-78
2022/03/06 07:29:32;;;;;;;11.47;5.40;;;7.00;71.30;;;;;;5044181;28;20203;-79
2022/03/06 07:32:00;;;;;;;8.80;4.70;;;7.10;70.60;;;;;;5043580;28;20203;-78
2022/03/06 07:34:30;;;;;;;9.70;5.30;;;7.10;70.10;;;;;;5045306;28;20197;-78
2022/03/06 07:36:59;;;;;;;12.20;5.43;;;7.20;69.90;;;;;;5044290;28;20208;-79
2022/03/06 07:39:27;;;;;;;9.03;5.27;;;7.30;69.90;;;;;;5043712;28;20215;-78
2022/03/06 07:41:55;;;;;;;8.67;4.23;;;7.40;69.40;;;;;;5044512;28;20200;-79
2022/03/06 07:44:23;;;;;;;9.50;5.63;;;7.50;69.50;;;;;;5043288;28;20884;-78
2022/03/06 07:46:53;;;;;;;7.20;4.33;;;7.60;68.70;;;;;;5044758;28;20225;-79
2022/03/06 07:49:21;;;;;;;10.13;4.90;;;7.60;67.40;;;;;;5044055;28;20378;-77
2022/03/06 07:51:50;;;;;;;6.70;4.30;;;7.70;67.40;;;;;;5045559;28;20198;-77
2022/03/06 07:54:18;;;;;;;10.05;5.50;;;7.80;66.60;;;;;;5042400;28;20511;-78
2022/03/06 07:56:46;;;;;;;9.30;4.77;;;8.00;67.20;;;;;;5043455;28;20191;-79
2022/03/06 07:59:15;;;;;;;8.03;4.20;;;8.10;66.70;;;;;;5042406;28;20271;-78
2022/03/06 08:01:43;;;;;;;8.97;4.40;;;8.20;65.00;;;;;;5040927;28;20243;-78
2022/03/06 08:04:13;;;;;;;6.50;3.97;;;8.40;64.80;;;;;;5041061;28;20226;-79
2022/03/06 08:06:41;;;;;;;8.88;4.28;;;8.30;63.20;;;;;;5043624;28;20501;-82
2022/03/06 08:09:10;;;;;;;7.10;3.93;;;8.40;62.30;;;;;;5046456;28;20209;-79
2022/03/06 08:11:38;;;;;;;6.60;3.87;;;8.50;62.50;;;;;;5042814;28;20249;-79
2022/03/06 08:14:06;;;;;;;6.23;3.87;;;8.50;62.30;;;;;;5043342;28;20211;-80
2022/03/06 08:16:35;;;;;;;6.93;3.83;;;8.50;61.40;;;;;;5042836;28;20202;-78
2022/03/06 08:19:03;;;;;;;7.00;3.77;;;8.50;61.80;;;;;;5044753;28;20682;-78
2022/03/06 08:21:32;;;;;;;6.57;3.63;;;8.50;61.50;;;;;;5042215;28;20202;-81
2022/03/06 08:24:01;;;;;;;6.90;3.60;;;8.60;60.70;;;;;;5041331;28;20262;-77
2022/03/06 08:26:29;;;;;;;7.93;3.63;;;8.60;60.10;;;;;;5045145;28;20213;-80
2022/03/06 08:28:59;;;;;;;6.70;4.10;;;8.60;59.80;;;;;;5044571;28;20213;-80
2022/03/06 08:31:27;;;;;;;7.23;3.77;;;8.70;60.10;;;;;;5043026;28;20210;-82
2022/03/06 08:33:56;;;;;;;5.93;3.70;;;8.80;61.00;;;;;;5042414;28;20201;-81
2022/03/06 08:36:24;;;;;;;6.23;2.83;;;8.80;60.60;;;;;;5042681;28;20719;-82
2022/03/06 08:38:57;;;;;;;6.17;2.93;;;8.90;58.90;;;;;;5043967;28;20850;-80
2022/03/06 08:41:25;;;;;;;6.97;4.00;;;8.90;58.40;;;;;;5042614;28;20512;-79
2022/03/06 08:43:54;;;;;;;5.73;3.60;;;8.80;58.30;;;;;;5043303;28;20251;-80
2022/03/06 08:46:22;;;;;;;7.30;3.70;;;8.90;59.00;;;;;;5042645;28;20276;-81
2022/03/06 08:48:50;;;;;;;5.37;3.53;;;8.90;59.20;;;;;;5043351;28;20844;-80
2022/03/06 08:51:19;;;;;;;4.87;2.70;;;9.00;59.50;;;;;;5044167;28;20315;-79
2022/03/06 08:53:47;;;;;;;6.40;3.57;;;9.10;59.40;;;;;;5042878;28;20292;-80
2022/03/06 08:56:17;;;;;;;4.33;2.77;;;9.10;59.60;;;;;;5043158;28;20207;-79
2022/03/06 08:58:45;;;;;;;5.83;3.33;;;9.20;59.30;;;;;;5043818;28;20203;-82
2022/03/06 09:01:13;;;;;;;6.53;2.93;;;9.20;58.70;;;;;;5042458;28;20450;-79
2022/03/06 09:03:42;;;;;;;5.63;3.03;;;9.20;58.00;;;;;;5042841;28;20819;-79
2022/03/06 09:06:10;;;;;;;5.57;3.30;;;9.20;58.40;;;;;;5044080;28;20195;-79
2022/03/06 09:08:39;;;;;;;5.97;3.00;;;9.20;58.30;;;;;;5042620;28;20215;-79
2022/03/06 09:11:07;;;;;;;5.17;3.07;;;9.20;58.50;;;;;;5043831;28;20452;-80
2022/03/06 09:13:37;;;;;;;6.30;3.43;;;9.30;58.80;;;;;;5040965;28;20918;-79
2022/03/06 09:16:06;;;;;;;5.80;3.13;;;9.30;58.60;;;;;;5042465;28;20705;-80
2022/03/06 09:18:34;;;;;;;6.03;3.40;;;9.30;58.40;;;;;;5043495;28;20236;-79
2022/03/06 09:21:03;;;;;;;5.47;3.40;;;9.40;58.10;;;;;;5044061;28;20269;-77
2022/03/06 09:23:31;;;;;;;6.00;3.03;;;9.40;57.70;;;;;;5041839;28;20673;-78
2022/03/06 09:25:59;;;;;;;4.97;3.13;;;9.50;57.10;;;;;;5042162;28;20238;-79
2022/03/06 09:28:28;;;;;;;8.80;3.67;;;9.50;57.40;;;;;;5042643;28;20883;-78
2022/03/06 09:30:57;;;;;;;6.90;4.00;;;9.50;57.40;;;;;;5041850;28;20567;-78
2022/03/06 09:33:26;;;;;;;7.63;3.60;;;9.60;57.50;;;;;;5041329;28;20194;-79
2022/03/06 09:35:54;;;;;;;5.77;3.87;;;9.70;57.70;;;;;;5042555;28;20561;-78
2022/03/06 09:38:22;;;;;;;6.10;3.50;;;9.70;57.60;;;;;;5043541;28;20201;-80
2022/03/06 09:40:53;;;;;;;4.70;2.83;;;9.70;57.10;;;;;;5043147;28;20210;-81
2022/03/06 09:43:27;;;;;;;4.57;2.70;;;9.80;56.70;;;;;;5042619;28;20299;-79
2022/03/06 09:46:04;;;;;;;5.00;2.93;;;9.70;56.50;;;;;;5042121;28;20202;-80
2022/03/06 09:48:32;;;;;;;6.43;3.63;;;9.70;56.50;;;;;;5040980;28;20223;-80
2022/03/06 09:51:02;;;;;;;5.70;3.40;;;9.70;56.60;;;;;;5040635;28;20209;-78
2022/03/06 09:53:31;;;;;;;6.53;3.23;;;9.70;56.30;;;;;;5042268;28;20194;-80
2022/03/06 09:56:00;;;;;;;5.37;2.90;;;9.70;56.50;;;;;;5045154;28;20198;-79
2022/03/06 09:58:28;;;;;;;5.80;2.93;;;9.80;56.80;;;;;;5044841;28;20203;-78
2022/03/06 10:00:58;;;;;;;7.00;3.53;;;10.00;57.00;;;;;;5046236;28;20210;-79
2022/03/06 10:03:27;;;;;;;5.10;3.10;;;10.00;56.60;;;;;;5045126;28;20585;-79
2022/03/06 10:05:56;;;;;;;6.37;3.30;;;10.10;56.50;;;;;;5044695;28;20764;-77
2022/03/06 10:08:25;;;;;;;5.20;3.03;;;10.20;56.30;;;;;;5046488;28;20823;-80
2022/03/06 10:10:56;;;;;;;5.53;2.60;;;10.20;55.40;;;;;;5044323;28;20823;-78
2022/03/06 10:13:28;;;;;;;6.47;3.33;;;10.30;55.40;;;;;;5044945;28;20187;-78
2022/03/06 10:16:00;;;;;;;5.77;3.57;;;10.40;55.60;;;;;;5044790;28;20191;-79
2022/03/06 10:18:31;;;;;;;5.90;3.03;;;10.50;55.90;;;;;;5046161;28;20218;-80
2022/03/06 10:21:18;;;;;;;5.43;3.23;;;10.50;55.50;;;;;;5045767;28;20223;-81
2022/03/06 10:23:49;;;;;;;7.83;3.93;;;10.50;55.30;;;;;;5045589;28;20197;-81
2022/03/06 10:26:19;;;;;;;9.00;3.77;;;10.60;55.40;;;;;;5045354;28;20199;-81
2022/03/06 10:28:50;;;;;;;9.73;4.10;;;10.50;55.00;;;;;;5045258;28;20222;-79
2022/03/06 10:31:21;;;;;;;7.53;3.53;;;10.60;55.30;;;;;;5045505;28;20225;-78
2022/03/06 10:34:04;;;;;;;7.17;3.83;;;10.50;55.10;;;;;;5045569;28;20848;-80
2022/03/06 10:36:38;;;;;;;5.67;3.80;;;10.50;55.30;;;;;;5045406;28;20225;-80
2022/03/06 10:39:14;;;;;;;7.70;4.23;;;10.40;54.50;;;;;;5044910;28;20203;-79
2022/03/06 10:41:46;;;;;;;6.07;3.90;;;10.30;54.40;;;;;;5045707;28;21885;-80
2022/03/06 10:44:16;;;;;;;7.93;4.27;;;10.40;55.20;;;;;;5045863;28;20192;-79
2022/03/06 10:46:59;;;;;;;6.30;3.60;;;10.30;55.20;;;;;;5045979;28;22242;-80
2022/03/06 10:49:28;;;;;;;5.10;3.13;;;10.30;54.90;;;;;;5047590;28;20256;-78
2022/03/06 10:51:56;;;;;;;6.33;3.67;;;10.20;54.50;;;;;;5045403;28;20211;-78
2022/03/06 10:54:30;;;;;;;5.73;3.37;;;10.20;54.90;;;;;;5045030;28;20251;-80
2022/03/06 10:57:10;;;;;;;4.87;2.93;;;10.20;55.20;;;;;;5026694;28;20202;-78
2022/03/06 10:59:41;;;;;;;7.87;4.20;;;10.10;54.70;;;;;;5045747;28;20210;-80
2022/03/06 11:02:12;;;;;;;5.83;3.30;;;10.20;55.40;;;;;;5044032;28;20199;-81
2022/03/06 11:04:41;;;;;;;5.67;3.40;;;10.20;55.30;;;;;;5045415;28;20253;-79
2022/03/06 11:07:11;;;;;;;6.30;2.97;;;10.20;54.90;;;;;;5044737;28;20286;-77
2022/03/06 11:09:40;;;;;;;5.20;3.07;;;10.10;54.50;;;;;;5044282;28;20635;-78
2022/03/06 11:12:09;;;;;;;5.80;3.73;;;10.10;55.00;;;;;;5044231;28;20285;-79
2022/03/06 11:14:38;;;;;;;6.33;2.90;;;10.10;55.10;;;;;;5044732;28;20629;-81
2022/03/06 11:17:07;;;;;;;5.87;2.90;;;10.00;55.70;;;;;;5045206;28;20213;-81
2022/03/06 11:19:38;;;;;;;6.07;3.53;;;9.90;55.00;;;;;;5045206;28;20207;-79
2022/03/06 11:22:19;;;;;;;8.97;3.63;;;10.00;55.00;;;;;;5044336;28;20197;-78
2022/03/06 11:24:54;;;;;;;4.97;3.37;;;10.00;55.40;;;;;;5044004;28;20206;-76
2022/03/06 11:27:43;;;;;;;5.07;2.97;;;9.90;55.10;;;;;;5042976;28;20202;-79
2022/03/06 11:30:18;;;;;;;8.00;3.03;;;9.90;55.40;;;;;;5045409;28;20183;-77
2022/03/06 11:32:58;;;;;;;6.93;3.33;;;9.90;55.60;;;;;;5042317;28;20286;-79
2022/03/06 11:35:33;;;;;;;7.30;3.97;;;9.80;55.30;;;;;;5043102;28;20221;-80
2022/03/06 11:38:02;;;;;;;8.43;3.60;;;9.90;55.40;;;;;;5044833;28;20195;-80
2022/03/06 11:40:51;;;;;;;8.67;3.57;;;9.80;55.30;;;;;;5045872;28;20774;-79
2022/03/06 11:43:43;;;;;;;6.00;3.40;;;10.00;55.70;;;;;;5043542;28;20195;-78
2022/03/06 11:46:17;;;;;;;5.73;3.27;;;10.00;54.90;;;;;;5044307;28;20322;-81
2022/03/06 11:49:13;;;;;;;8.20;3.47;;;10.20;56.10;;;;;;5045431;28;20210;-80
2022/03/06 11:51:47;;;;;;;8.10;3.73;;;10.40;55.50;;;;;;5044245;28;20537;-80
2022/03/06 11:54:18;;;;;;;7.00;3.40;;;10.50;55.60;;;;;;5044641;28;20225;-79
2022/03/06 11:56:57;;;;;;;5.57;3.00;;;10.50;54.80;;;;;;5043657;28;20202;-78
2022/03/06 11:59:46;;;;;;;6.13;3.50;;;10.50;55.00;;;;;;5042637;28;20183;-78
2022/03/06 12:02:23;;;;;;;6.60;3.73;;;10.60;54.20;;;;;;5043590;28;20202;-78
2022/03/06 12:04:57;;;;;;;5.43;3.40;;;10.60;54.60;;;;;;5042808;28;20195;-78
2022/03/06 12:07:27;;;;;;;6.57;3.47;;;10.60;54.70;;;;;;5043256;28;20206;-81
2022/03/06 12:09:56;;;;;;;5.63;3.40;;;10.60;54.30;;;;;;5043109;28;20211;-77
2022/03/06 12:12:25;;;;;;;7.13;3.87;;;10.60;54.30;;;;;;5042309;28;20199;-78
2022/03/06 12:14:56;;;;;;;6.70;3.40;;;10.70;54.80;;;;;;5042235;28;20195;-78
2022/03/06 12:17:35;;;;;;;6.47;3.80;;;10.70;54.60;;;;;;5042301;28;20199;-77
2022/03/06 12:20:35;;;;;;;7.80;4.00;;;10.70;54.70;;;;;;5044472;28;20183;-79
2022/03/06 12:23:09;;;;;;;7.03;3.27;;;10.70;54.10;;;;;;5043273;28;20227;-79
2022/03/06 12:25:39;;;;;;;6.53;3.70;;;10.80;54.60;;;;;;5042046;28;20197;-81
2022/03/06 12:28:41;;;;;;;7.30;4.30;;;10.80;54.30;;;;;;5041980;28;20579;-78
2022/03/06 12:31:34;;;;;;;6.17;3.67;;;10.70;54.00;;;;;;5043119;28;20242;-77
2022/03/06 12:34:35;;;;;;;6.90;3.83;;;10.70;54.10;;;;;;5040069;28;20244;-78
2022/03/06 12:37:04;;;;;;;6.20;3.40;;;10.60;53.80;;;;;;5042248;28;20608;-76
2022/03/06 12:39:37;;;;;;;6.30;3.83;;;10.60;54.10;;;;;;5042571;28;20444;-77
2022/03/06 12:42:06;;;;;;;7.03;4.00;;;10.50;54.50;;;;;;5041596;28;20194;-79
2022/03/06 12:44:46;;;;;;;6.57;3.77;;;10.50;54.70;;;;;;5040597;28;20560;-77
2022/03/06 12:47:14;;;;;;;5.37;3.90;;;10.40;54.20;;;;;;5042329;28;20285;-78
2022/03/06 12:49:47;;;;;;;6.30;3.77;;;10.30;54.60;;;;;;5043497;28;20218;-79
2022/03/06 12:52:17;;;;;;;6.80;4.13;;;10.20;54.50;;;;;;5042352;28;20653;-76
2022/03/06 12:54:48;;;;;;;8.13;4.30;;;10.10;54.60;;;;;;5043271;28;20210;-77
2022/03/06 12:57:17;;;;;;;5.90;3.50;;;10.00;54.70;;;;;;5040614;28;20190;-77
2022/03/06 12:59:48;;;;;;;7.93;4.00;;;9.90;54.70;;;;;;5043943;28;20195;-77
2022/03/06 13:02:18;;;;;;;7.43;4.73;;;9.90;54.90;;;;;;5042097;28;20284;-76
2022/03/06 13:04:49;;;;;;;8.77;4.80;;;9.80;55.10;;;;;;5043381;28;20893;-77